sensor_id;sensor_type;location;lat;lon;timestamp;P1;durP1;ratioP1;P2;durP2;ratioP2
62153;SDS011;48140;45.486;9.226;2023-06-10T00:01:32;6.20;;;3.45;;
62153;SDS011;48140;45.486;9.226;2023-06-10T00:04:01;7.38;;;3.33;;
62153;SDS011;48140;45.486;9.226;2023-06-10T00:06:27;9.75;;;3.50;;
62153;SDS011;48140;45.486;9.226;2023-06-10T00:08:53;8.90;;;3.53;;
62153;SDS011;48140;45.486;9.226;2023-06-10T00:11:20;5.88;;;3.70;;
62153;SDS011;48140;45.486;9.226;2023-06-10T00:13:46;6.38;;;3.38;;
62153;SDS011;48140;45.486;9.226;2023-06-10T00:16:12;6.72;;;3.20;;
62153;SDS011;48140;45.486;9.226;2023-06-10T00:18:37;8.27;;;3.30;;
62153;SDS011;48140;45.486;9.226;2023-06-10T00:21:03;8.23;;;3.42;;
62153;SDS011;48140;45.486;9.226;2023-06-10T00:23:30;5.45;;;3.40;;
62153;SDS011;48140;45.486;9.226;2023-06-10T00:25:59;6.20;;;3.65;;
62153;SDS011;48140;45.486;9.226;2023-06-10T00:28:25;6.07;;;3.25;;
62153;SDS011;48140;45.486;9.226;2023-06-10T00:30:51;6.00;;;3.35;;
62153;SDS011;48140;45.486;9.226;2023-06-10T00:33:16;5.80;;;3.00;;
62153;SDS011;48140;45.486;9.226;2023-06-10T00:35:42;6.28;;;3.08;;
62153;SDS011;48140;45.486;9.226;2023-06-10T00:38:08;8.95;;;3.42;;
62153;SDS011;48140;45.486;9.226;2023-06-10T00:40:38;5.85;;;3.28;;
62153;SDS011;48140;45.486;9.226;2023-06-10T00:43:05;7.47;;;3.33;;
62153;SDS011;48140;45.486;9.226;2023-06-10T00:45:31;8.85;;;3.15;;
62153;SDS011;48140;45.486;9.226;2023-06-10T00:47:56;8.27;;;3.35;;
62153;SDS011;48140;45.486;9.226;2023-06-10T00:50:23;8.00;;;3.90;;
62153;SDS011;48140;45.486;9.226;2023-06-10T00:52:48;7.03;;;2.90;;
62153;SDS011;48140;45.486;9.226;2023-06-10T00:55:16;5.18;;;2.90;;
62153;SDS011;48140;45.486;9.226;2023-06-10T00:57:43;7.20;;;2.90;;
62153;SDS011;48140;45.486;9.226;2023-06-10T01:00:12;6.95;;;2.83;;
62153;SDS011;48140;45.486;9.226;2023-06-10T01:02:38;5.55;;;2.33;;
62153;SDS011;48140;45.486;9.226;2023-06-10T01:05:04;7.50;;;2.63;;
62153;SDS011;48140;45.486;9.226;2023-06-10T01:10:43;5.22;;;2.50;;
62153;SDS011;48140;45.486;9.226;2023-06-10T01:13:11;5.28;;;2.60;;
62153;SDS011;48140;45.486;9.226;2023-06-10T01:15:37;8.48;;;2.50;;
62153;SDS011;48140;45.486;9.226;2023-06-10T01:18:04;4.72;;;2.08;;
62153;SDS011;48140;45.486;9.226;2023-06-10T01:20:33;4.97;;;2.33;;
62153;SDS011;48140;45.486;9.226;2023-06-10T01:23:02;6.50;;;2.22;;
62153;SDS011;48140;45.486;9.226;2023-06-10T01:25:29;5.57;;;2.40;;
62153;SDS011;48140;45.486;9.226;2023-06-10T01:30:27;4.80;;;2.40;;
62153;SDS011;48140;45.486;9.226;2023-06-10T01:32:55;3.55;;;2.13;;
62153;SDS011;48140;45.486;9.226;2023-06-10T01:35:25;4.15;;;2.55;;
62153;SDS011;48140;45.486;9.226;2023-06-10T01:37:54;6.10;;;2.42;;
62153;SDS011;48140;45.486;9.226;2023-06-10T01:40:23;4.75;;;2.55;;
62153;SDS011;48140;45.486;9.226;2023-06-10T01:42:49;5.32;;;2.90;;
62153;SDS011;48140;45.486;9.226;2023-06-10T01:45:14;5.80;;;2.30;;
62153;SDS011;48140;45.486;9.226;2023-06-10T01:47:40;5.32;;;2.47;;
62153;SDS011;48140;45.486;9.226;2023-06-10T01:50:06;5.40;;;2.75;;
62153;SDS011;48140;45.486;9.226;2023-06-10T01:52:32;6.50;;;2.65;;
62153;SDS011;48140;45.486;9.226;2023-06-10T01:54:58;5.82;;;3.00;;
62153;SDS011;48140;45.486;9.226;2023-06-10T01:57:23;4.03;;;2.60;;
62153;SDS011;48140;45.486;9.226;2023-06-10T01:59:49;5.75;;;2.38;;
62153;SDS011;48140;45.486;9.226;2023-06-10T02:02:14;5.22;;;2.47;;
62153;SDS011;48140;45.486;9.226;2023-06-10T02:04:40;7.45;;;2.65;;
62153;SDS011;48140;45.486;9.226;2023-06-10T02:07:06;4.85;;;2.50;;
62153;SDS011;48140;45.486;9.226;2023-06-10T02:09:33;4.22;;;2.40;;
62153;SDS011;48140;45.486;9.226;2023-06-10T02:12:01;5.40;;;2.25;;
62153;SDS011;48140;45.486;9.226;2023-06-10T02:14:27;5.90;;;2.20;;
62153;SDS011;48140;45.486;9.226;2023-06-10T02:16:53;4.88;;;2.42;;
62153;SDS011;48140;45.486;9.226;2023-06-10T02:19:21;6.88;;;2.55;;
62153;SDS011;48140;45.486;9.226;2023-06-10T02:21:48;5.50;;;2.25;;
62153;SDS011;48140;45.486;9.226;2023-06-10T02:24:14;5.00;;;2.65;;
62153;SDS011;48140;45.486;9.226;2023-06-10T02:26:39;5.35;;;2.30;;
62153;SDS011;48140;45.486;9.226;2023-06-10T02:29:05;5.25;;;2.10;;
62153;SDS011;48140;45.486;9.226;2023-06-10T02:31:31;6.25;;;2.70;;
62153;SDS011;48140;45.486;9.226;2023-06-10T02:33:58;4.88;;;2.47;;
62153;SDS011;48140;45.486;9.226;2023-06-10T02:36:23;6.05;;;2.53;;
62153;SDS011;48140;45.486;9.226;2023-06-10T02:38:49;4.68;;;2.38;;
62153;SDS011;48140;45.486;9.226;2023-06-10T02:41:15;5.07;;;2.30;;
62153;SDS011;48140;45.486;9.226;2023-06-10T02:43:41;6.15;;;2.90;;
62153;SDS011;48140;45.486;9.226;2023-06-10T02:46:06;4.72;;;2.55;;
62153;SDS011;48140;45.486;9.226;2023-06-10T02:48:33;5.07;;;2.55;;
62153;SDS011;48140;45.486;9.226;2023-06-10T02:51:06;5.07;;;3.25;;
62153;SDS011;48140;45.486;9.226;2023-06-10T02:53:31;3.72;;;2.20;;
62153;SDS011;48140;45.486;9.226;2023-06-10T02:55:57;8.10;;;2.63;;
62153;SDS011;48140;45.486;9.226;2023-06-10T02:58:22;4.55;;;2.17;;
62153;SDS011;48140;45.486;9.226;2023-06-10T03:00:49;4.85;;;2.40;;
62153;SDS011;48140;45.486;9.226;2023-06-10T03:03:15;4.43;;;2.05;;
62153;SDS011;48140;45.486;9.226;2023-06-10T03:05:41;8.13;;;2.42;;
62153;SDS011;48140;45.486;9.226;2023-06-10T03:08:06;4.45;;;2.50;;
62153;SDS011;48140;45.486;9.226;2023-06-10T03:10:32;8.32;;;2.40;;
62153;SDS011;48140;45.486;9.226;2023-06-10T03:12:58;4.82;;;2.50;;
62153;SDS011;48140;45.486;9.226;2023-06-10T03:15:23;4.43;;;2.10;;
62153;SDS011;48140;45.486;9.226;2023-06-10T03:17:49;3.42;;;2.13;;
62153;SDS011;48140;45.486;9.226;2023-06-10T03:20:15;3.38;;;2.10;;
62153;SDS011;48140;45.486;9.226;2023-06-10T03:22:41;4.95;;;2.63;;
62153;SDS011;48140;45.486;9.226;2023-06-10T03:25:08;4.55;;;2.33;;
62153;SDS011;48140;45.486;9.226;2023-06-10T03:27:39;3.47;;;2.00;;
62153;SDS011;48140;45.486;9.226;2023-06-10T03:30:05;4.57;;;2.30;;
62153;SDS011;48140;45.486;9.226;2023-06-10T03:32:31;7.78;;;2.40;;
62153;SDS011;48140;45.486;9.226;2023-06-10T03:34:57;5.55;;;2.60;;
62153;SDS011;48140;45.486;9.226;2023-06-10T03:37:23;4.63;;;2.40;;
62153;SDS011;48140;45.486;9.226;2023-06-10T03:39:50;5.28;;;2.38;;
62153;SDS011;48140;45.486;9.226;2023-06-10T03:42:15;6.53;;;2.90;;
62153;SDS011;48140;45.486;9.226;2023-06-10T03:44:41;4.05;;;2.25;;
62153;SDS011;48140;45.486;9.226;2023-06-10T03:47:06;5.07;;;2.47;;
62153;SDS011;48140;45.486;9.226;2023-06-10T03:49:32;3.53;;;2.15;;
62153;SDS011;48140;45.486;9.226;2023-06-10T03:51:58;4.78;;;2.50;;
62153;SDS011;48140;45.486;9.226;2023-06-10T03:54:24;4.32;;;2.53;;
62153;SDS011;48140;45.486;9.226;2023-06-10T03:56:50;4.25;;;2.40;;
62153;SDS011;48140;45.486;9.226;2023-06-10T03:59:15;6.10;;;2.45;;
62153;SDS011;48140;45.486;9.226;2023-06-10T04:01:41;4.90;;;2.42;;
62153;SDS011;48140;45.486;9.226;2023-06-10T04:04:08;4.43;;;2.30;;
62153;SDS011;48140;45.486;9.226;2023-06-10T04:06:34;6.30;;;2.80;;
62153;SDS011;48140;45.486;9.226;2023-06-10T04:08:59;7.93;;;2.70;;
62153;SDS011;48140;45.486;9.226;2023-06-10T04:11:25;3.45;;;2.22;;
62153;SDS011;48140;45.486;9.226;2023-06-10T04:13:51;4.72;;;2.40;;
62153;SDS011;48140;45.486;9.226;2023-06-10T04:16:17;5.72;;;2.88;;
62153;SDS011;48140;45.486;9.226;2023-06-10T04:18:42;4.93;;;2.50;;
62153;SDS011;48140;45.486;9.226;2023-06-10T04:21:08;4.65;;;2.20;;
62153;SDS011;48140;45.486;9.226;2023-06-10T04:23:35;5.18;;;2.10;;
62153;SDS011;48140;45.486;9.226;2023-06-10T04:26:02;7.28;;;2.88;;
62153;SDS011;48140;45.486;9.226;2023-06-10T04:28:28;3.88;;;2.20;;
62153;SDS011;48140;45.486;9.226;2023-06-10T04:30:53;6.47;;;2.38;;
62153;SDS011;48140;45.486;9.226;2023-06-10T04:33:19;3.70;;;2.28;;
62153;SDS011;48140;45.486;9.226;2023-06-10T04:35:45;6.38;;;2.17;;
62153;SDS011;48140;45.486;9.226;2023-06-10T04:38:13;5.18;;;2.20;;
62153;SDS011;48140;45.486;9.226;2023-06-10T04:40:39;4.90;;;2.50;;
62153;SDS011;48140;45.486;9.226;2023-06-10T04:43:05;3.20;;;1.88;;
62153;SDS011;48140;45.486;9.226;2023-06-10T04:45:30;4.03;;;2.25;;
62153;SDS011;48140;45.486;9.226;2023-06-10T04:47:56;3.65;;;2.17;;
62153;SDS011;48140;45.486;9.226;2023-06-10T04:50:23;5.38;;;2.58;;
62153;SDS011;48140;45.486;9.226;2023-06-10T04:52:49;7.35;;;2.63;;
62153;SDS011;48140;45.486;9.226;2023-06-10T04:55:15;6.60;;;2.60;;
62153;SDS011;48140;45.486;9.226;2023-06-10T04:57:41;3.72;;;2.30;;
62153;SDS011;48140;45.486;9.226;2023-06-10T05:00:06;3.70;;;2.28;;
62153;SDS011;48140;45.486;9.226;2023-06-10T05:02:33;4.82;;;2.35;;
62153;SDS011;48140;45.486;9.226;2023-06-10T05:04:59;7.70;;;2.50;;
62153;SDS011;48140;45.486;9.226;2023-06-10T05:07:25;4.07;;;2.28;;
62153;SDS011;48140;45.486;9.226;2023-06-10T05:09:51;4.63;;;2.65;;
62153;SDS011;48140;45.486;9.226;2023-06-10T05:12:16;5.95;;;2.33;;
62153;SDS011;48140;45.486;9.226;2023-06-10T05:14:42;7.30;;;2.80;;
62153;SDS011;48140;45.486;9.226;2023-06-10T05:17:09;6.68;;;2.65;;
62153;SDS011;48140;45.486;9.226;2023-06-10T05:19:35;7.20;;;2.72;;
62153;SDS011;48140;45.486;9.226;2023-06-10T05:22:02;3.75;;;2.40;;
62153;SDS011;48140;45.486;9.226;2023-06-10T05:24:28;6.88;;;3.22;;
62153;SDS011;48140;45.486;9.226;2023-06-10T05:26:53;4.00;;;2.63;;
62153;SDS011;48140;45.486;9.226;2023-06-10T05:29:19;5.97;;;2.90;;
62153;SDS011;48140;45.486;9.226;2023-06-10T05:31:45;4.32;;;2.63;;
62153;SDS011;48140;45.486;9.226;2023-06-10T05:34:10;5.90;;;2.55;;
62153;SDS011;48140;45.486;9.226;2023-06-10T05:36:36;6.35;;;3.00;;
62153;SDS011;48140;45.486;9.226;2023-06-10T05:39:02;7.45;;;3.10;;
62153;SDS011;48140;45.486;9.226;2023-06-10T05:41:28;7.40;;;2.92;;
62153;SDS011;48140;45.486;9.226;2023-06-10T05:43:54;7.57;;;3.05;;
62153;SDS011;48140;45.486;9.226;2023-06-10T05:46:20;4.30;;;2.90;;
62153;SDS011;48140;45.486;9.226;2023-06-10T05:48:45;6.38;;;2.67;;
62153;SDS011;48140;45.486;9.226;2023-06-10T05:51:11;6.90;;;2.50;;
62153;SDS011;48140;45.486;9.226;2023-06-10T05:53:36;5.57;;;2.70;;
62153;SDS011;48140;45.486;9.226;2023-06-10T05:56:03;6.22;;;2.60;;
62153;SDS011;48140;45.486;9.226;2023-06-10T05:58:29;6.78;;;2.67;;
62153;SDS011;48140;45.486;9.226;2023-06-10T06:00:55;5.78;;;2.85;;
62153;SDS011;48140;45.486;9.226;2023-06-10T06:03:20;4.45;;;2.65;;
62153;SDS011;48140;45.486;9.226;2023-06-10T06:05:46;5.70;;;2.97;;
62153;SDS011;48140;45.486;9.226;2023-06-10T06:08:12;4.25;;;2.70;;
62153;SDS011;48140;45.486;9.226;2023-06-10T06:10:44;4.80;;;2.60;;
62153;SDS011;48140;45.486;9.226;2023-06-10T06:13:10;6.00;;;2.72;;
62153;SDS011;48140;45.486;9.226;2023-06-10T06:15:36;4.40;;;2.67;;
62153;SDS011;48140;45.486;9.226;2023-06-10T06:18:01;6.20;;;2.90;;
62153;SDS011;48140;45.486;9.226;2023-06-10T06:20:27;5.90;;;2.75;;
62153;SDS011;48140;45.486;9.226;2023-06-10T06:22:53;4.30;;;2.70;;
62153;SDS011;48140;45.486;9.226;2023-06-10T06:25:19;6.65;;;2.58;;
62153;SDS011;48140;45.486;9.226;2023-06-10T06:27:44;3.95;;;2.47;;
62153;SDS011;48140;45.486;9.226;2023-06-10T06:30:10;6.68;;;2.65;;
62153;SDS011;48140;45.486;9.226;2023-06-10T06:32:36;4.97;;;2.58;;
62153;SDS011;48140;45.486;9.226;2023-06-10T06:35:02;5.82;;;2.25;;
62153;SDS011;48140;45.486;9.226;2023-06-10T06:37:29;8.25;;;2.83;;
62153;SDS011;48140;45.486;9.226;2023-06-10T06:39:55;9.18;;;2.72;;
62153;SDS011;48140;45.486;9.226;2023-06-10T06:42:22;4.18;;;2.22;;
62153;SDS011;48140;45.486;9.226;2023-06-10T06:44:48;4.35;;;2.40;;
62153;SDS011;48140;45.486;9.226;2023-06-10T06:47:14;7.30;;;2.85;;
62153;SDS011;48140;45.486;9.226;2023-06-10T06:49:39;6.95;;;2.55;;
62153;SDS011;48140;45.486;9.226;2023-06-10T06:52:06;4.45;;;2.55;;
62153;SDS011;48140;45.486;9.226;2023-06-10T06:54:32;3.67;;;2.20;;
62153;SDS011;48140;45.486;9.226;2023-06-10T06:56:58;6.03;;;2.33;;
62153;SDS011;48140;45.486;9.226;2023-06-10T06:59:23;4.07;;;2.20;;
62153;SDS011;48140;45.486;9.226;2023-06-10T07:01:50;5.85;;;2.55;;
62153;SDS011;48140;45.486;9.226;2023-06-10T07:04:16;5.13;;;2.42;;
62153;SDS011;48140;45.486;9.226;2023-06-10T07:06:42;5.07;;;2.67;;
62153;SDS011;48140;45.486;9.226;2023-06-10T07:09:07;6.90;;;2.40;;
62153;SDS011;48140;45.486;9.226;2023-06-10T07:11:36;3.95;;;2.30;;
62153;SDS011;48140;45.486;9.226;2023-06-10T07:14:02;6.55;;;2.50;;
62153;SDS011;48140;45.486;9.226;2023-06-10T07:16:27;4.50;;;2.22;;
62153;SDS011;48140;45.486;9.226;2023-06-10T07:18:53;3.30;;;2.10;;
62153;SDS011;48140;45.486;9.226;2023-06-10T07:21:19;4.80;;;2.55;;
62153;SDS011;48140;45.486;9.226;2023-06-10T07:23:45;4.55;;;2.45;;
62153;SDS011;48140;45.486;9.226;2023-06-10T07:26:11;5.15;;;2.13;;
62153;SDS011;48140;45.486;9.226;2023-06-10T07:28:38;5.63;;;2.20;;
62153;SDS011;48140;45.486;9.226;2023-06-10T07:31:04;10.90;;;5.80;;
62153;SDS011;48140;45.486;9.226;2023-06-10T07:33:30;7.60;;;2.67;;
62153;SDS011;48140;45.486;9.226;2023-06-10T07:35:56;4.97;;;2.95;;
62153;SDS011;48140;45.486;9.226;2023-06-10T07:38:22;8.20;;;2.53;;
62153;SDS011;48140;45.486;9.226;2023-06-10T07:40:47;9.05;;;2.88;;
62153;SDS011;48140;45.486;9.226;2023-06-10T07:43:13;5.60;;;2.70;;
62153;SDS011;48140;45.486;9.226;2023-06-10T07:45:41;8.55;;;2.30;;
62153;SDS011;48140;45.486;9.226;2023-06-10T07:48:08;6.57;;;2.63;;
62153;SDS011;48140;45.486;9.226;2023-06-10T07:50:34;8.98;;;2.78;;
62153;SDS011;48140;45.486;9.226;2023-06-10T07:53:00;4.07;;;2.30;;
62153;SDS011;48140;45.486;9.226;2023-06-10T07:55:26;5.03;;;2.10;;
62153;SDS011;48140;45.486;9.226;2023-06-10T07:57:52;4.35;;;2.20;;
62153;SDS011;48140;45.486;9.226;2023-06-10T08:00:18;5.82;;;2.47;;
62153;SDS011;48140;45.486;9.226;2023-06-10T08:02:44;5.90;;;2.33;;
62153;SDS011;48140;45.486;9.226;2023-06-10T08:05:10;5.18;;;2.47;;
62153;SDS011;48140;45.486;9.226;2023-06-10T08:07:37;8.73;;;2.58;;
62153;SDS011;48140;45.486;9.226;2023-06-10T08:10:04;5.63;;;2.65;;
62153;SDS011;48140;45.486;9.226;2023-06-10T08:12:31;6.65;;;2.53;;
62153;SDS011;48140;45.486;9.226;2023-06-10T08:14:59;3.42;;;2.38;;
62153;SDS011;48140;45.486;9.226;2023-06-10T08:17:25;5.45;;;2.60;;
62153;SDS011;48140;45.486;9.226;2023-06-10T08:19:51;5.72;;;3.20;;
62153;SDS011;48140;45.486;9.226;2023-06-10T08:22:16;7.60;;;2.40;;
62153;SDS011;48140;45.486;9.226;2023-06-10T08:24:42;6.70;;;2.65;;
62153;SDS011;48140;45.486;9.226;2023-06-10T08:27:08;7.10;;;2.47;;
62153;SDS011;48140;45.486;9.226;2023-06-10T08:29:33;9.18;;;2.97;;
62153;SDS011;48140;45.486;9.226;2023-06-10T08:31:59;6.07;;;3.13;;
62153;SDS011;48140;45.486;9.226;2023-06-10T08:34:25;6.20;;;3.00;;
62153;SDS011;48140;45.486;9.226;2023-06-10T08:36:51;5.60;;;2.65;;
62153;SDS011;48140;45.486;9.226;2023-06-10T08:39:18;4.72;;;2.60;;
62153;SDS011;48140;45.486;9.226;2023-06-10T08:41:45;4.50;;;2.40;;
62153;SDS011;48140;45.486;9.226;2023-06-10T08:44:28;6.32;;;2.90;;
62153;SDS011;48140;45.486;9.226;2023-06-10T08:47:01;7.43;;;2.72;;
62153;SDS011;48140;45.486;9.226;2023-06-10T08:49:38;5.28;;;2.67;;
62153;SDS011;48140;45.486;9.226;2023-06-10T08:52:06;6.93;;;2.78;;
62153;SDS011;48140;45.486;9.226;2023-06-10T08:54:33;7.47;;;3.17;;
62153;SDS011;48140;45.486;9.226;2023-06-10T08:57:02;9.70;;;2.60;;
62153;SDS011;48140;45.486;9.226;2023-06-10T08:59:31;7.05;;;2.78;;
62153;SDS011;48140;45.486;9.226;2023-06-10T09:01:56;7.38;;;3.20;;
62153;SDS011;48140;45.486;9.226;2023-06-10T09:04:23;7.00;;;3.00;;
62153;SDS011;48140;45.486;9.226;2023-06-10T09:06:49;5.18;;;2.90;;
62153;SDS011;48140;45.486;9.226;2023-06-10T09:09:17;7.45;;;3.08;;
62153;SDS011;48140;45.486;9.226;2023-06-10T09:11:48;6.00;;;3.17;;
62153;SDS011;48140;45.486;9.226;2023-06-10T09:14:16;5.40;;;3.40;;
62153;SDS011;48140;45.486;9.226;2023-06-10T09:16:42;7.82;;;3.70;;
62153;SDS011;48140;45.486;9.226;2023-06-10T09:19:08;14.43;;;3.85;;
62153;SDS011;48140;45.486;9.226;2023-06-10T09:21:34;11.00;;;3.30;;
62153;SDS011;48140;45.486;9.226;2023-06-10T09:24:03;6.18;;;2.97;;
62153;SDS011;48140;45.486;9.226;2023-06-10T09:26:30;6.20;;;3.15;;
62153;SDS011;48140;45.486;9.226;2023-06-10T09:29:05;9.20;;;3.85;;
62153;SDS011;48140;45.486;9.226;2023-06-10T09:31:37;6.13;;;2.80;;
62153;SDS011;48140;45.486;9.226;2023-06-10T09:34:07;5.95;;;2.78;;
62153;SDS011;48140;45.486;9.226;2023-06-10T09:36:35;7.20;;;3.28;;
62153;SDS011;48140;45.486;9.226;2023-06-10T09:39:01;8.75;;;3.15;;
62153;SDS011;48140;45.486;9.226;2023-06-10T09:41:31;8.75;;;3.42;;
62153;SDS011;48140;45.486;9.226;2023-06-10T09:43:59;6.93;;;3.20;;
62153;SDS011;48140;45.486;9.226;2023-06-10T09:46:25;6.40;;;3.00;;
62153;SDS011;48140;45.486;9.226;2023-06-10T09:48:57;5.78;;;3.10;;
62153;SDS011;48140;45.486;9.226;2023-06-10T09:51:23;8.52;;;3.17;;
62153;SDS011;48140;45.486;9.226;2023-06-10T09:53:50;4.63;;;2.70;;
62153;SDS011;48140;45.486;9.226;2023-06-10T09:56:16;6.38;;;2.90;;
62153;SDS011;48140;45.486;9.226;2023-06-10T09:58:44;6.82;;;3.03;;
62153;SDS011;48140;45.486;9.226;2023-06-10T10:01:11;7.63;;;2.75;;
62153;SDS011;48140;45.486;9.226;2023-06-10T10:03:48;6.22;;;2.60;;
62153;SDS011;48140;45.486;9.226;2023-06-10T10:06:16;7.53;;;3.30;;
62153;SDS011;48140;45.486;9.226;2023-06-10T10:08:42;5.35;;;2.72;;
62153;SDS011;48140;45.486;9.226;2023-06-10T10:11:09;5.32;;;2.88;;
62153;SDS011;48140;45.486;9.226;2023-06-10T10:13:35;7.20;;;3.08;;
62153;SDS011;48140;45.486;9.226;2023-06-10T10:16:17;6.03;;;3.22;;
62153;SDS011;48140;45.486;9.226;2023-06-10T10:18:55;6.03;;;3.40;;
62153;SDS011;48140;45.486;9.226;2023-06-10T10:21:27;4.40;;;2.55;;
62153;SDS011;48140;45.486;9.226;2023-06-10T10:24:09;5.03;;;2.83;;
62153;SDS011;48140;45.486;9.226;2023-06-10T10:26:42;5.47;;;2.75;;
62153;SDS011;48140;45.486;9.226;2023-06-10T10:29:12;4.50;;;2.40;;
62153;SDS011;48140;45.486;9.226;2023-06-10T10:32:00;4.93;;;2.58;;
62153;SDS011;48140;45.486;9.226;2023-06-10T10:36:58;5.15;;;2.40;;
62153;SDS011;48140;45.486;9.226;2023-06-10T10:39:24;5.32;;;2.70;;
62153;SDS011;48140;45.486;9.226;2023-06-10T10:41:51;5.70;;;2.50;;
62153;SDS011;48140;45.486;9.226;2023-06-10T10:44:17;7.97;;;2.50;;
62153;SDS011;48140;45.486;9.226;2023-06-10T10:46:44;5.05;;;2.72;;
62153;SDS011;48140;45.486;9.226;2023-06-10T10:49:14;4.38;;;2.40;;
62153;SDS011;48140;45.486;9.226;2023-06-10T10:54:29;4.43;;;2.40;;
62153;SDS011;48140;45.486;9.226;2023-06-10T10:57:32;6.60;;;2.67;;
62153;SDS011;48140;45.486;9.226;2023-06-10T10:59:55;6.25;;;2.50;;
62153;SDS011;48140;45.486;9.226;2023-06-10T11:02:38;7.05;;;3.00;;
62153;SDS011;48140;45.486;9.226;2023-06-10T11:05:18;5.07;;;2.90;;
62153;SDS011;48140;45.486;9.226;2023-06-10T11:08:10;5.70;;;3.03;;
62153;SDS011;48140;45.486;9.226;2023-06-10T11:10:39;9.02;;;3.08;;
62153;SDS011;48140;45.486;9.226;2023-06-10T11:13:07;5.75;;;2.85;;
62153;SDS011;48140;45.486;9.226;2023-06-10T11:15:37;6.18;;;3.20;;
62153;SDS011;48140;45.486;9.226;2023-06-10T11:18:08;4.40;;;3.00;;
62153;SDS011;48140;45.486;9.226;2023-06-10T11:31:19;5.22;;;2.55;;
62153;SDS011;48140;45.486;9.226;2023-06-10T11:33:47;5.40;;;2.42;;
62153;SDS011;48140;45.486;9.226;2023-06-10T11:36:19;6.07;;;2.47;;
62153;SDS011;48140;45.486;9.226;2023-06-10T11:38:45;7.18;;;2.42;;
62153;SDS011;48140;45.486;9.226;2023-06-10T11:41:11;5.05;;;2.55;;
62153;SDS011;48140;45.486;9.226;2023-06-10T11:43:40;4.82;;;2.70;;
62153;SDS011;48140;45.486;9.226;2023-06-10T11:46:09;3.97;;;2.08;;
62153;SDS011;48140;45.486;9.226;2023-06-10T11:48:35;4.65;;;2.00;;
62153;SDS011;48140;45.486;9.226;2023-06-10T11:51:00;6.50;;;2.63;;
62153;SDS011;48140;45.486;9.226;2023-06-10T11:53:26;3.13;;;2.03;;
62153;SDS011;48140;45.486;9.226;2023-06-10T11:55:53;3.88;;;2.20;;
62153;SDS011;48140;45.486;9.226;2023-06-10T11:58:22;4.72;;;2.30;;
62153;SDS011;48140;45.486;9.226;2023-06-10T12:00:48;6.13;;;2.20;;
62153;SDS011;48140;45.486;9.226;2023-06-10T12:03:15;5.80;;;2.40;;
62153;SDS011;48140;45.486;9.226;2023-06-10T12:08:23;4.13;;;2.15;;
62153;SDS011;48140;45.486;9.226;2023-06-10T12:10:49;4.28;;;2.30;;
62153;SDS011;48140;45.486;9.226;2023-06-10T12:13:15;6.38;;;2.00;;
62153;SDS011;48140;45.486;9.226;2023-06-10T12:15:42;2.72;;;1.80;;
62153;SDS011;48140;45.486;9.226;2023-06-10T12:18:15;3.55;;;1.95;;
62153;SDS011;48140;45.486;9.226;2023-06-10T12:20:45;5.00;;;2.17;;
62153;SDS011;48140;45.486;9.226;2023-06-10T12:23:11;5.57;;;2.30;;
62153;SDS011;48140;45.486;9.226;2023-06-10T12:25:38;3.65;;;2.35;;
62153;SDS011;48140;45.486;9.226;2023-06-10T12:28:05;4.22;;;2.30;;
62153;SDS011;48140;45.486;9.226;2023-06-10T12:30:31;2.72;;;1.88;;
62153;SDS011;48140;45.486;9.226;2023-06-10T12:32:57;5.20;;;2.30;;
62153;SDS011;48140;45.486;9.226;2023-06-10T12:35:26;11.55;;;2.63;;
62153;SDS011;48140;45.486;9.226;2023-06-10T12:38:03;5.18;;;2.10;;
62153;SDS011;48140;45.486;9.226;2023-06-10T12:40:33;2.47;;;1.90;;
62153;SDS011;48140;45.486;9.226;2023-06-10T12:43:01;5.32;;;2.35;;
62153;SDS011;48140;45.486;9.226;2023-06-10T12:45:28;3.78;;;2.00;;
62153;SDS011;48140;45.486;9.226;2023-06-10T12:48:08;3.95;;;2.13;;
62153;SDS011;48140;45.486;9.226;2023-06-10T12:50:35;4.70;;;2.20;;
62153;SDS011;48140;45.486;9.226;2023-06-10T12:53:02;3.35;;;2.33;;
62153;SDS011;48140;45.486;9.226;2023-06-10T12:55:28;4.88;;;2.55;;
62153;SDS011;48140;45.486;9.226;2023-06-10T12:57:54;5.22;;;2.65;;
62153;SDS011;48140;45.486;9.226;2023-06-10T13:00:20;5.25;;;2.50;;
62153;SDS011;48140;45.486;9.226;2023-06-10T13:02:47;4.35;;;2.75;;
62153;SDS011;48140;45.486;9.226;2023-06-10T13:05:15;3.33;;;2.20;;
62153;SDS011;48140;45.486;9.226;2023-06-10T13:07:43;4.45;;;2.90;;
62153;SDS011;48140;45.486;9.226;2023-06-10T13:10:09;4.65;;;3.30;;
62153;SDS011;48140;45.486;9.226;2023-06-10T13:12:35;6.57;;;3.58;;
62153;SDS011;48140;45.486;9.226;2023-06-10T13:15:01;6.13;;;3.45;;
62153;SDS011;48140;45.486;9.226;2023-06-10T13:17:28;7.10;;;3.63;;
62153;SDS011;48140;45.486;9.226;2023-06-10T13:19:53;7.70;;;4.15;;
62153;SDS011;48140;45.486;9.226;2023-06-10T13:22:19;5.55;;;3.97;;
62153;SDS011;48140;45.486;9.226;2023-06-10T13:24:45;5.78;;;3.65;;
62153;SDS011;48140;45.486;9.226;2023-06-10T13:27:11;6.10;;;4.20;;
62153;SDS011;48140;45.486;9.226;2023-06-10T13:29:39;6.03;;;3.70;;
62153;SDS011;48140;45.486;9.226;2023-06-10T13:32:05;8.27;;;4.30;;
62153;SDS011;48140;45.486;9.226;2023-06-10T13:34:31;7.97;;;4.35;;
62153;SDS011;48140;45.486;9.226;2023-06-10T13:36:57;7.63;;;4.35;;
62153;SDS011;48140;45.486;9.226;2023-06-10T13:39:22;4.82;;;4.07;;
62153;SDS011;48140;45.486;9.226;2023-06-10T13:41:48;6.25;;;4.00;;
62153;SDS011;48140;45.486;9.226;2023-06-10T13:44:14;14.25;;;4.80;;
62153;SDS011;48140;45.486;9.226;2023-06-10T13:46:39;7.47;;;4.18;;
62153;SDS011;48140;45.486;9.226;2023-06-10T13:49:08;7.63;;;5.13;;
62153;SDS011;48140;45.486;9.226;2023-06-10T13:51:34;7.82;;;5.10;;
62153;SDS011;48140;45.486;9.226;2023-06-10T13:54:00;6.13;;;4.70;;
62153;SDS011;48140;45.486;9.226;2023-06-10T13:56:25;9.88;;;5.30;;
62153;SDS011;48140;45.486;9.226;2023-06-10T13:58:51;9.05;;;4.75;;
62153;SDS011;48140;45.486;9.226;2023-06-10T14:01:17;6.40;;;4.22;;
62153;SDS011;48140;45.486;9.226;2023-06-10T14:03:43;10.38;;;5.75;;
62153;SDS011;48140;45.486;9.226;2023-06-10T14:06:08;6.80;;;4.35;;
62153;SDS011;48140;45.486;9.226;2023-06-10T14:08:34;9.60;;;4.35;;
62153;SDS011;48140;45.486;9.226;2023-06-10T14:11:00;8.85;;;4.82;;
62153;SDS011;48140;45.486;9.226;2023-06-10T14:13:26;7.25;;;4.47;;
62153;SDS011;48140;45.486;9.226;2023-06-10T14:15:52;6.18;;;3.78;;
62153;SDS011;48140;45.486;9.226;2023-06-10T14:18:17;7.50;;;4.10;;
62153;SDS011;48140;45.486;9.226;2023-06-10T14:20:43;7.15;;;5.07;;
62153;SDS011;48140;45.486;9.226;2023-06-10T14:23:09;6.88;;;4.50;;
62153;SDS011;48140;45.486;9.226;2023-06-10T14:25:34;7.70;;;4.25;;
62153;SDS011;48140;45.486;9.226;2023-06-10T14:28:00;7.55;;;4.07;;
62153;SDS011;48140;45.486;9.226;2023-06-10T14:30:25;7.25;;;4.55;;
62153;SDS011;48140;45.486;9.226;2023-06-10T14:32:51;7.88;;;4.05;;
62153;SDS011;48140;45.486;9.226;2023-06-10T14:35:17;4.90;;;3.90;;
62153;SDS011;48140;45.486;9.226;2023-06-10T14:37:42;5.75;;;4.00;;
62153;SDS011;48140;45.486;9.226;2023-06-10T14:40:08;6.95;;;4.05;;
62153;SDS011;48140;45.486;9.226;2023-06-10T14:42:34;6.75;;;3.60;;
62153;SDS011;48140;45.486;9.226;2023-06-10T14:45:00;6.75;;;3.47;;
62153;SDS011;48140;45.486;9.226;2023-06-10T14:47:26;5.35;;;3.08;;
62153;SDS011;48140;45.486;9.226;2023-06-10T14:49:51;5.25;;;3.25;;
62153;SDS011;48140;45.486;9.226;2023-06-10T14:52:17;6.38;;;3.60;;
62153;SDS011;48140;45.486;9.226;2023-06-10T14:54:42;6.22;;;3.05;;
62153;SDS011;48140;45.486;9.226;2023-06-10T14:57:08;3.92;;;2.88;;
62153;SDS011;48140;45.486;9.226;2023-06-10T14:59:34;5.18;;;3.00;;
62153;SDS011;48140;45.486;9.226;2023-06-10T15:02:00;6.80;;;2.58;;
62153;SDS011;48140;45.486;9.226;2023-06-10T15:04:26;4.35;;;2.33;;
62153;SDS011;48140;45.486;9.226;2023-06-10T15:06:52;4.63;;;2.83;;
62153;SDS011;48140;45.486;9.226;2023-06-10T15:09:18;3.58;;;2.65;;
62153;SDS011;48140;45.486;9.226;2023-06-10T15:11:43;4.93;;;2.40;;